Latest Coastal Weather Observations for Whyalla

IDS60701

Issued at 2:41 am CST Monday 27 April 2015 (issued every 10 minutes, with the page automatically refreshed every 10 minutes)

About coastal observations | Map of coastal stations | Coastal observations for SA | Marine services | Other Formats
Station Details ID: 018120 Name: WHYALLA AERO Lat: -33.05 Lon: 137.52 Height: 6.5 m
Data from the previous 72 hours. | See also: Recent months at Whyalla
Date/Time
CST
Temp

°C
Wind Pressure Rain
since 9am
mm
Weather Cloud Vis
km
Sea
Height
m
Swell
Dir
 
Speed
knots
Gust
knots
hPa Trend Height
m
Period
s
Dir
27/02:30am 14.2 SE 6 10 1026.3 - 0.0 - Cloudy 10 - - - -
27/02:00am 14.1 SE 6 10 1026.4 - 0.0 - Cloudy 10 - - - -
27/01:30am 14.6 SSE 7 9 1026.5 - 0.0 - Partly cloudy 10 - - - -
27/01:00am 14.8 SE 9 14 1026.5 - 0.0 - Partly cloudy 10 - - - -
27/12:30am 14.7 SE 8 12 1026.6 - 0.0 - Partly cloudy 10 - - - -
27/12:00am 14.9 SE 8 12 1026.6 - 0.0 - Cloudy 10 - - - -
 
Date/Time
CST
Temp

°C
Wind Pressure Rain
since 9am
mm
Weather Cloud Vis
km
Sea
Height
m
Swell
Dir
 
Speed
knots
Gust
knots
hPa Trend Height
m
Period
s
Dir
26/11:30pm 15.1 SE 8 11 1026.7 - 0.0 - Partly cloudy 10 - - - -
26/11:00pm 15.1 SSE 8 11 1026.8 - 0.0 - Partly cloudy 10 - - - -
26/10:30pm 15.3 SSE 9 13 1026.8 - 0.0 - Partly cloudy 10 - - - -
26/10:00pm 15.4 SSE 9 13 1026.7 - 0.0 - Partly cloudy 10 - - - -
26/09:30pm 15.5 SSE 9 13 1026.6 - 0.0 - Cloudy 10 - - - -
26/09:00pm 15.5 SSE 9 13 1026.7 - 0.0 - Mostly cloudy 10 - - - -
26/08:30pm 15.5 SSE 8 11 1026.5 - 0.0 - Cloudy 10 - - - -
26/08:00pm 15.6 SSE 9 14 1026.3 - 0.0 - Partly cloudy 10 - - - -
26/07:30pm 15.7 S 10 14 1026.0 - 0.0 - Partly cloudy 10 - - - -
26/07:00pm 15.3 SSW 11 14 1025.8 - 0.0 - Partly cloudy 10 - - - -
26/06:30pm 15.1 SSW 11 15 1025.5 - 0.0 - Partly cloudy 10 - - - -
26/06:00pm 15.2 SSW 12 17 1025.3 - 0.0 - - 10 - - - -
26/05:30pm 15.8 S 14 20 1024.9 - 0.0 - - 10 - - - -
26/05:00pm 16.6 SSW 15 18 1024.6 - 0.0 - - 10 - - - -
26/04:30pm 16.8 S 13 18 1024.4 - 0.0 - - 10 - - - -
26/04:00pm 17.1 SSW 15 20 1024.3 - 0.0 - - 10 - - - -
26/03:30pm 17.5 SSW 15 20 1024.4 - 0.0 - Partly cloudy 10 - - - -
26/03:00pm 16.9 S 15 19 1024.3 - 0.0 - Partly cloudy 10 - - - -
26/02:30pm 17.9 S 15 20 1024.2 - 0.0 - - 10 - - - -
26/02:00pm 17.7 S 13 18 1024.3 - 0.0 - - 10 - - - -
26/01:30pm 16.4 S 11 16 1024.4 - 0.0 - - 10 - - - -
26/01:00pm 17.5 SSE 9 14 1024.4 - 0.0 - Partly cloudy 10 - - - -
26/12:30pm 16.6 SSE 10 14 1024.7 - 0.0 - Partly cloudy 10 - - - -
26/12:00pm 16.4 SSE 12 16 1025.0 - 0.0 - Mostly clear 10 - - - -
26/11:30am 16.4 S 11 15 1025.2 - 0.0 - Partly cloudy 10 - - - -
26/11:00am 15.6 SSE 10 15 1025.4 - 0.0 - Partly cloudy 10 - - - -
26/10:30am 16.0 S 9 11 1025.4 - 0.0 - Partly cloudy 10 - - - -
26/10:00am 14.5 SSW 8 11 1025.6 - 0.0 - Partly cloudy 10 - - - -
26/09:30am 14.3 SSW 8 12 1025.6 - 0.0 - Partly cloudy 10 - - - -
26/09:00am 13.4 SW 9 12 1025.5 - 1.0 Recent precip. Cloudy 10 - - - -
26/08:30am 12.9 SW 7 9 1025.3 - 0.8 - Partly cloudy 10 - - - -
26/08:00am 11.9 WSW 7 9 1024.9 - 0.8 - Partly cloudy 10 - - - -
26/07:30am 11.4 WSW 6 8 1024.5 - 0.8 - Partly cloudy 10 - - - -
26/07:00am 11.4 WSW 7 9 1024.1 - 0.8 - Partly cloudy 10 - - - -
26/06:30am 11.8 WSW 7 9 1023.8 - 0.8 - Partly cloudy 10 - - - -
26/06:00am 11.8 WSW 7 9 1023.4 - 0.8 - Cloudy 10 - - - -
26/05:30am 11.6 WSW 6 8 1023.1 - 0.8 - Partly cloudy 10 - - - -
26/05:00am 11.4 WSW 7 8 1023.0 - 0.8 - Cloudy 10 - - - -
26/04:30am 10.9 WSW 5 7 1022.7 - 0.8 - Cloudy 10 - - - -
26/04:00am 10.6 W 7 8 1022.5 - 0.8 - Partly cloudy 10 - - - -
26/03:30am 10.9 WSW 7 8 1022.3 - 0.8 - - 10 - - - -
26/03:00am 11.6 SW 8 10 1022.1 - 0.8 - Mostly clear 10 - - - -
26/02:30am 12.2 SW 5 7 1022.0 - 0.8 - Cloudy 10 - - - -
26/02:01am 12.6 SSW 6 7 1022.2 - 0.8 - Partly cloudy 10 - - - -
26/02:00am 12.6 SSW 6 7 1022.2 - 0.8 - Partly cloudy 10 - - - -
26/01:43am 12.5 SW 8 10 1022.3 - 0.8 - Partly cloudy 5 - - - -
26/01:30am 12.5 WSW 5 7 1022.3 - 0.6 - Partly cloudy 10 - - - -
26/01:00am 12.7 SW 8 11 1022.0 - 0.6 - Partly cloudy 10 - - - -
26/12:30am 12.9 WSW 5 7 1022.1 - 0.6 - Partly cloudy 10 - - - -
26/12:00am 13.7 SW 9 12 1022.1 - 0.6 - Cloudy 10 - - - -
 
Date/Time
CST
Temp

°C
Wind Pressure Rain
since 9am
mm
Weather Cloud Vis
km
Sea
Height
m
Swell
Dir
 
Speed
knots
Gust
knots
hPa Trend Height
m
Period
s
Dir
25/11:30pm 14.6 S 9 14 1022.0 - 0.6 - Partly cloudy 10 - - - -
25/11:00pm 14.5 S 10 13 1022.1 - 0.6 - Partly cloudy 10 - - - -
25/10:30pm 14.7 S 11 16 1022.0 - 0.6 - Partly cloudy 10 - - - -
25/10:00pm 14.5 S 12 18 1021.7 - 0.6 - Partly cloudy 10 - - - -
25/09:30pm 14.4 SSE 11 17 1021.4 - 0.6 - Partly cloudy 10 - - - -
25/09:00pm 14.5 S 13 18 1021.0 - 0.6 Recent precip. Cloudy 10 - - - -
25/08:30pm 14.0 SSW 12 18 1020.6 - 0.6 - Partly cloudy 10 - - - -
25/08:24pm 13.8 SSW 12 15 1020.6 - 0.6 - Partly cloudy 10 - - - -
25/08:09pm 13.8 SW 14 18 1020.4 - 0.6 - Partly cloudy 5 - - - -
25/08:00pm 14.1 SW 13 19 1020.3 - 0.2 - Partly cloudy 10 - - - -
25/07:30pm 14.1 SW 13 19 1020.0 - 0.2 - Partly cloudy 10 - - - -
25/07:00pm 14.3 SSW 12 17 1019.7 - 0.0 - Partly cloudy 10 - - - -
25/06:30pm 14.0 SW 12 16 1019.4 - 0.0 - Partly cloudy 10 - - - -
25/06:10pm 14.6 SSW 12 16 1019.0 - 0.0 - Partly cloudy 10 - - - -
25/06:00pm 14.5 SSW 17 26 1018.8 - 0.0 - Cloudy 5 - - - -
25/05:58pm 14.7 SSW 17 26 1018.8 - 0.0 - Partly cloudy 5 - - - -
25/05:51pm 16.2 SSW 15 26 1018.5 - 0.0 - Partly cloudy 10 - - - -
25/05:30pm 16.7 SSW 13 17 1018.2 - 0.0 - - 10 - - - -
25/05:00pm 17.3 SSW 17 22 1017.7 - 0.0 - Partly cloudy 10 - - - -
25/04:30pm 17.5 SSW 15 21 1017.4 - 0.0 - Partly cloudy 10 - - - -
25/04:00pm 17.6 S 17 23 1017.2 - 0.0 - Partly cloudy 10 - - - -
25/03:30pm 17.9 S 18 25 1016.9 - 0.0 - - 10 - - - -
25/03:00pm 18.1 S 16 22 1016.5 - 0.0 - Partly cloudy 10 - - - -
25/02:30pm 17.8 S 14 20 1016.4 - 0.0 - Partly cloudy 10 - - - -
25/02:00pm 17.5 S 15 19 1016.2 - 0.0 - Partly cloudy 10 - - - -
25/01:30pm 16.9 S 15 19 1016.2 - 0.0 - Partly cloudy 10 - - - -
25/01:00pm 17.1 SSW 15 21 1016.0 - 0.0 - Partly cloudy 10 - - - -
25/12:30pm 17.2 SSW 16 21 1016.0 - 0.0 - Cloudy 10 - - - -
25/12:00pm 17.0 SSW 16 20 1016.3 - 0.0 - Mostly cloudy 10 - - - -
25/11:30am 17.7 S 15 23 1016.1 - 0.0 - Partly cloudy 10 - - - -
25/11:00am 17.6 SSW 18 23 1015.8 - 0.0 - Partly cloudy 10 - - - -
25/10:30am 16.9 S 17 23 1015.8 - 0.0 - Partly cloudy 10 - - - -
25/10:00am 16.8 SSW 17 23 1015.3 - 0.0 - - 10 - - - -
25/09:30am 16.2 SSW 14 20 1015.0 - 0.0 - - 10 - - - -
25/09:00am 15.4 SW 15 20 1014.8 - 0.6 - - 10 - - - -
25/08:30am 14.3 SW 14 20 1014.2 - 0.6 - - 10 - - - -
25/08:00am 13.1 SW 13 18 1013.5 - 0.6 - Partly cloudy 10 - - - -
25/07:30am 12.2 WSW 13 16 1012.8 - 0.6 - - 10 - - - -
25/07:00am 12.2 SW 13 18 1012.0 - 0.6 - Partly cloudy 10 - - - -
25/06:30am 12.0 WSW 13 19 1011.1 - 0.6 - Partly cloudy 10 - - - -
25/06:00am 12.3 WSW 14 20 1010.5 - 0.6 - Partly cloudy 10 - - - -
25/05:30am 12.8 WSW 14 20 1010.1 - 0.6 - Partly cloudy 10 - - - -
25/05:00am 12.8 WSW 11 15 1009.5 - 0.6 - Partly cloudy 10 - - - -
25/04:30am 12.8 SW 14 20 1009.0 - 0.6 - Partly cloudy 10 - - - -
25/04:00am 13.0 WSW 12 18 1008.6 - 0.6 - Partly cloudy 10 - - - -
25/03:30am 13.2 WSW 13 18 1008.2 - 0.6 - Partly cloudy 10 - - - -
25/03:00am 13.0 WSW 14 20 1007.8 - 0.6 - Partly cloudy 10 - - - -
25/02:30am 13.0 W 15 21 1007.6 - 0.6 - Partly cloudy 10 - - - -
25/02:00am 13.0 W 15 21 1007.5 - 0.6 - Partly cloudy 10 - - - -
25/01:30am 13.5 W 21 34 1007.0 - 0.6 - Partly cloudy 10 - - - -
25/01:00am 14.3 W 22 34 1006.7 - 0.6 - Partly cloudy 10 - - - -
25/12:31am 14.2 W 20 32 1007.1 - 0.6 - Partly cloudy 10 - - - -
25/12:30am 14.2 WNW 20 29 1007.1 - 0.6 - Partly cloudy 10 - - - -
25/12:00am 13.8 WNW 15 25 1007.6 - 0.6 - Cloudy 10 - - - -
 
Date/Time
CST
Temp

°C
Wind Pressure Rain
since 9am
mm
Weather Cloud Vis
km
Sea
Height
m
Swell
Dir
 
Speed
knots
Gust
knots
hPa Trend Height
m
Period
s
Dir
24/11:57pm 13.7 WNW 15 25 1007.7 - 0.6 - Cloudy 10 - - - -
24/11:30pm 13.5 WNW 17 23 1007.9 - 0.6 - Cloudy 10 - - - -
24/11:00pm 13.4 NW 18 26 1008.4 - 0.6 - Partly cloudy 10 - - - -
24/10:39pm 13.5 WNW 19 32 1008.9 - 0.6 - Cloudy 10 - - - -
24/10:30pm 13.3 WNW 18 26 1009.0 - 0.6 - Partly cloudy 10 - - - -
24/10:13pm 13.3 NW 15 25 1009.0 - 0.6 - Cloudy 10 - - - -
24/10:00pm 13.2 NW 18 25 1009.4 - 0.6 - Partly cloudy 10 - - - -
24/09:30pm 13.2 NW 13 17 1009.7 - 0.6 - Partly cloudy 10 - - - -
24/09:00pm 12.9 NNW 12 17 1010.0 - 0.6 - Cloudy 10 - - - -
24/08:30pm 12.5 NNW 9 12 1010.4 - 0.6 - Partly cloudy 10 - - - -
24/08:00pm 12.2 NNW 10 13 1010.7 - 0.6 - - 10 - - - -
24/07:30pm 12.5 NW 10 12 1010.9 - 0.6 - Partly cloudy 10 - - - -
24/07:00pm 12.8 NW 11 14 1011.0 - 0.6 - Partly cloudy 10 - - - -
24/06:30pm 14.2 WNW 14 19 1010.5 - 0.6 - Partly cloudy 10 - - - -
24/06:00pm 14.3 W 11 15 1010.4 - 0.6 - Partly cloudy 10 - - - -
24/05:30pm 15.2 W 14 20 1010.2 - 0.6 - - 10 - - - -
24/05:00pm 15.7 WNW 17 23 1010.1 - 0.6 - Partly cloudy 10 - - - -
24/04:30pm 16.1 W 16 21 1009.9 - 0.6 - Partly cloudy 10 - - - -
24/04:00pm 17.2 W 15 21 1009.8 - 0.6 - Partly cloudy 10 - - - -
24/03:30pm 16.8 WSW 17 22 1009.8 - 0.6 - Partly cloudy 10 - - - -
24/03:00pm 17.0 W 12 17 1010.0 - 0.6 - Mostly cloudy 10 - - - -
24/02:30pm 17.8 W 15 20 1009.8 - 0.6 - Partly cloudy 10 - - - -
24/02:02pm 16.7 W 19 29 1009.9 - 0.6 - Partly cloudy 10 - - - -
24/02:00pm 16.5 W 21 29 1009.9 - 0.6 - Partly cloudy 10 - - - -
24/01:45pm 16.6 WSW 17 27 1010.0 - 0.6 - Partly cloudy 10 - - - -
24/01:30pm 15.7 WSW 15 21 1010.2 - 0.6 - Partly cloudy 10 - - - -
24/01:06pm 16.3 WSW 15 25 1010.2 - 0.6 - Partly cloudy 10 - - - -
24/01:00pm 17.2 WSW 14 19 1010.1 - 0.6 - Partly cloudy 10 - - - -
24/12:30pm 16.2 W 14 19 1010.5 - 0.6 - Partly cloudy 10 - - - -
24/12:00pm 14.9 WSW 11 17 1011.1 - 0.6 - Cloudy 10 - - - -
24/11:30am 13.0 WSW 17 24 1011.5 - 0.6 - Partly cloudy 10 - - - -
24/11:00am 14.1 WSW 12 20 1011.5 - 0.6 - Partly cloudy 10 - - - -
24/10:30am 14.0 WSW 13 20 1011.2 - 0.6 - Partly cloudy 10 - - - -
24/10:25am 14.0 W 11 18 1011.2 - 0.6 - Partly cloudy 10 - - - -
24/10:01am 14.2 W 17 25 1011.1 - 0.2 - Partly cloudy 5 - - - -
24/10:00am 14.6 W 16 25 1011.1 - 0.0 - Partly cloudy 6 - - - -
24/09:58am 15.5 W 15 25 1010.9 - 0.0 - Partly cloudy 10 - - - -
24/09:30am 16.9 WNW 17 23 1010.6 - 0.0 - Partly cloudy 10 - - - -
24/09:00am 16.0 WNW 14 21 1010.7 - 0.0 - - 10 - - - -
24/08:30am 15.3 NW 11 14 1010.6 - 0.0 - - 10 - - - -
24/08:00am 14.0 NW 10 14 1010.6 - 0.0 - - 10 - - - -
24/07:30am 12.7 NW 9 11 1010.6 - 0.0 - - 10 - - - -
24/07:00am 12.5 NW 10 12 1010.3 - 0.0 - Partly cloudy 10 - - - -
24/06:30am 12.3 NW 7 9 1010.7 - 0.0 - Cloudy 10 - - - -
24/06:00am 11.9 NNW 7 9 1010.5 - 0.0 - Cloudy 10 - - - -
24/05:30am 12.1 NNW 8 10 1010.4 - 0.0 - Partly cloudy 10 - - - -
24/05:00am 12.5 NNW 8 9 1010.4 - 0.0 - Cloudy 10 - - - -
24/04:30am 12.6 NNW 6 7 1010.5 - 0.0 - Partly cloudy 10 - - - -
24/04:00am 13.0 WNW 7 8 1011.0 - 0.0 - Cloudy 10 - - - -
24/03:30am 12.4 NW 6 7 1011.0 - 0.0 - Partly cloudy 10 - - - -
24/03:00am 12.4 NW 6 7 1011.1 - 0.0 - Mostly clear 10 - - - -

Other Formats:

Comma delimited format used in spreadsheet applications
http://www.bom.gov.au/fwo/IDS60701/IDS60701.95664.axf

JavaScript Object Notation format (JSON) in row-major order
http://www.bom.gov.au/fwo/IDS60701/IDS60701.95664.json